createdAt,value
2022-12-26T00:01:09.394Z,98.29
2022-12-26T00:03:37.054Z,98.75
2022-12-26T00:06:05.471Z,98.18
2022-12-26T00:08:32.860Z,100.00
2022-12-26T00:11:01.587Z,97.87
2022-12-26T00:13:39.305Z,100.00
2022-12-26T00:16:10.488Z,98.51
2022-12-26T00:18:38.157Z,98.57
2022-12-26T00:21:05.874Z,98.81
2022-12-26T00:23:33.701Z,98.57
2022-12-26T00:26:05.099Z,97.03
2022-12-26T00:28:32.763Z,96.81
2022-12-26T00:31:03.729Z,98.76
2022-12-26T00:33:31.213Z,98.74
2022-12-26T00:36:02.040Z,98.08
2022-12-26T00:38:29.445Z,98.84
2022-12-26T00:40:56.886Z,97.13
2022-12-26T00:43:25.616Z,97.94
2022-12-26T00:45:53.247Z,98.16
2022-12-26T00:48:20.643Z,98.23
2022-12-26T00:50:48.050Z,96.90
2022-12-26T00:53:15.452Z,98.17
2022-12-26T00:55:43.063Z,96.24
2022-12-26T00:58:10.626Z,96.71
2022-12-26T01:00:39.744Z,97.25
2022-12-26T01:03:08.749Z,98.14
2022-12-26T01:05:36.443Z,96.32
2022-12-26T01:08:21.526Z,97.37
2022-12-26T01:10:51.522Z,97.02
2022-12-26T01:13:18.955Z,97.30
2022-12-26T01:15:50.965Z,100.00
2022-12-26T01:18:19.049Z,100.00
2022-12-26T01:20:46.598Z,97.42
2022-12-26T01:23:14.367Z,97.81
2022-12-26T01:26:17.406Z,97.25
2022-12-26T01:28:29.327Z,96.60
2022-12-26T01:31:02.402Z,96.02
2022-12-26T01:33:29.816Z,97.65
2022-12-26T01:35:57.652Z,98.97
2022-12-26T01:38:25.098Z,96.59
2022-12-26T01:41:12.544Z,95.40
2022-12-26T01:43:49.341Z,99.89
2022-12-26T01:46:20.587Z,96.73
2022-12-26T01:48:48.580Z,97.22
2022-12-26T01:51:17.490Z,96.37
2022-12-26T01:53:48.929Z,98.08
2022-12-26T01:56:21.121Z,98.14
2022-12-26T01:58:53.997Z,97.16
2022-12-26T02:01:26.555Z,98.80
2022-12-26T02:04:11.813Z,97.56
2022-12-26T02:06:41.253Z,100.00
2022-12-26T02:09:10.140Z,97.77
2022-12-26T02:11:41.067Z,100.00
2022-12-26T02:14:09.839Z,100.00
2022-12-26T02:16:40.044Z,100.00
2022-12-26T02:19:24.605Z,100.00
2022-12-26T02:22:09.556Z,99.18
2022-12-26T02:25:02.912Z,98.65
2022-12-26T02:27:44.633Z,96.99
2022-12-26T02:30:40.099Z,97.59
2022-12-26T02:33:30.537Z,95.51
2022-12-26T02:36:18.177Z,96.91
2022-12-26T02:38:54.525Z,97.39
2022-12-26T02:41:34.791Z,99.59
2022-12-26T02:44:32.229Z,96.98
2022-12-26T02:47:11.409Z,95.81
2022-12-26T02:50:10.875Z,96.86
2022-12-26T02:53:07.314Z,97.01
2022-12-26T02:55:57.061Z,96.97
2022-12-26T02:58:48.794Z,96.54
2022-12-26T03:01:41.140Z,95.97
2022-12-26T03:04:32.826Z,96.79
2022-12-26T03:07:22.494Z,95.65
2022-12-26T03:10:22.166Z,97.01
2022-12-26T03:13:13.573Z,96.61
2022-12-26T03:16:04.948Z,97.64
2022-12-26T03:18:59.526Z,96.52
2022-12-26T03:21:27.243Z,96.23
2022-12-26T03:23:57.555Z,95.59
2022-12-26T03:26:41.408Z,96.45
2022-12-26T03:29:29.006Z,100.00
2022-12-26T03:31:56.881Z,97.91
2022-12-26T03:34:25.322Z,97.53
2022-12-26T03:37:07.069Z,96.65
2022-12-26T03:40:01.151Z,96.04
2022-12-26T03:42:56.135Z,97.31
2022-12-26T03:45:50.697Z,95.19
2022-12-26T03:48:42.949Z,99.17
2022-12-26T03:51:32.343Z,98.75
2022-12-26T03:54:26.055Z,98.17
2022-12-26T03:57:13.946Z,100.00
2022-12-26T04:00:05.158Z,96.83
2022-12-26T04:02:51.883Z,98.70
2022-12-26T04:05:38.736Z,96.60
2022-12-26T04:08:32.118Z,96.23
2022-12-26T04:11:21.914Z,99.00
2022-12-26T04:14:12.842Z,98.48
2022-12-26T04:17:01.724Z,99.86
2022-12-26T04:19:45.389Z,98.50
2022-12-26T04:22:36.156Z,98.99
2022-12-26T04:25:48.580Z,100.00
2022-12-26T04:28:35.090Z,98.06
2022-12-26T04:31:26.662Z,96.85
2022-12-26T04:34:17.246Z,96.30
2022-12-26T04:37:08.029Z,95.97
2022-12-26T04:39:55.471Z,96.08
2022-12-26T04:42:42.693Z,97.66
2022-12-26T04:45:14.204Z,97.62
2022-12-26T04:48:01.893Z,99.48
2022-12-26T04:50:28.449Z,96.77
2022-12-26T04:52:58.678Z,97.04
2022-12-26T04:55:27.079Z,96.81
2022-12-26T04:57:54.595Z,97.01
2022-12-26T05:00:25.188Z,95.62
2022-12-26T05:03:16.270Z,97.22
2022-12-26T05:06:06.022Z,99.86
2022-12-26T05:08:54.331Z,97.31
2022-12-26T05:11:22.069Z,97.36
2022-12-26T05:13:49.586Z,95.83
2022-12-26T05:16:35.970Z,96.36
2022-12-26T05:19:21.234Z,98.32
2022-12-26T05:22:06.469Z,96.49
2022-12-26T05:24:53.676Z,94.63
2022-12-26T05:27:39.430Z,96.61
2022-12-26T05:30:08.526Z,96.20
2022-12-26T05:32:55.031Z,95.62
2022-12-26T05:35:22.600Z,97.63
2022-12-26T05:37:50.071Z,97.81
2022-12-26T05:40:17.567Z,99.46
2022-12-26T05:42:47.139Z,97.97
2022-12-26T05:45:14.590Z,96.52
2022-12-26T05:47:48.271Z,98.01
2022-12-26T05:50:18.991Z,98.69
2022-12-26T05:52:46.463Z,97.91
2022-12-26T05:55:13.888Z,96.26
2022-12-26T05:57:41.293Z,96.53
2022-12-26T06:00:14.154Z,97.35
2022-12-26T06:02:43.062Z,98.02
2022-12-26T06:05:11.121Z,95.49
2022-12-26T06:07:38.738Z,96.61
2022-12-26T06:10:07.340Z,96.09
2022-12-26T06:12:35.353Z,96.28
2022-12-26T06:15:02.980Z,94.53
2022-12-26T06:17:30.480Z,95.28
2022-12-26T06:19:59.233Z,96.97
2022-12-26T06:22:26.706Z,92.85
2022-12-26T06:24:54.118Z,94.53
2022-12-26T06:27:21.570Z,94.39
2022-12-26T06:29:48.965Z,95.19
2022-12-26T06:32:16.349Z,95.25
2022-12-26T06:34:43.775Z,95.22
2022-12-26T06:37:12.641Z,95.57
2022-12-26T06:39:40.073Z,93.93
2022-12-26T06:42:07.579Z,93.54
2022-12-26T06:44:34.985Z,93.94
2022-12-26T06:47:03.137Z,96.26
2022-12-26T06:49:32.717Z,93.51
2022-12-26T06:52:00.741Z,93.19
2022-12-26T06:54:29.450Z,91.96
2022-12-26T06:56:56.930Z,94.60
2022-12-26T06:59:24.431Z,95.34
2022-12-26T07:01:51.980Z,93.87
2022-12-26T07:04:19.484Z,94.21
2022-12-26T07:06:46.887Z,96.35
2022-12-26T07:09:16.975Z,94.83
2022-12-26T07:11:47.815Z,95.85
2022-12-26T07:14:16.105Z,94.96
2022-12-26T07:16:45.729Z,92.42
2022-12-26T07:19:14.959Z,96.00
2022-12-26T07:21:43.112Z,94.00
2022-12-26T07:24:15.731Z,92.78
2022-12-26T07:26:43.541Z,91.41
2022-12-26T07:29:12.858Z,92.70
2022-12-26T07:31:40.759Z,92.89
2022-12-26T07:34:09.016Z,94.81
2022-12-26T07:36:36.510Z,92.06
2022-12-26T07:39:04.335Z,92.16
2022-12-26T07:41:49.408Z,91.87
2022-12-26T07:44:18.203Z,91.81
2022-12-26T07:46:46.531Z,91.84
2022-12-26T07:49:14.461Z,93.01
2022-12-26T07:51:42.193Z,91.69
2022-12-26T07:54:11.556Z,90.97
2022-12-26T07:56:39.421Z,91.53
2022-12-26T07:59:06.892Z,91.91
2022-12-26T08:01:35.727Z,92.38
2022-12-26T08:04:03.388Z,93.18
2022-12-26T08:06:30.895Z,92.67
2022-12-26T08:08:58.291Z,90.87
2022-12-26T08:11:26.012Z,91.82
2022-12-26T08:13:53.698Z,91.49
2022-12-26T08:16:21.949Z,92.55
2022-12-26T08:18:50.756Z,93.84
2022-12-26T08:21:18.193Z,93.46
2022-12-26T08:23:48.056Z,93.31
2022-12-26T08:26:20.804Z,92.34
2022-12-26T08:28:48.433Z,92.84
2022-12-26T08:31:16.224Z,90.45
2022-12-26T08:33:43.625Z,90.94
2022-12-26T08:36:13.769Z,91.06
2022-12-26T08:38:41.581Z,90.67
2022-12-26T08:41:09.298Z,91.81
2022-12-26T08:46:24.925Z,92.24
2022-12-26T08:48:52.816Z,93.83
2022-12-26T08:51:23.691Z,92.65
2022-12-26T08:53:52.383Z,92.77
2022-12-26T08:56:22.188Z,93.88
2022-12-26T08:58:49.858Z,90.87
2022-12-26T09:01:19.445Z,92.04
2022-12-26T09:03:47.393Z,92.15
2022-12-26T09:06:16.199Z,91.83
2022-12-26T09:08:44.988Z,92.38
2022-12-26T09:11:15.719Z,92.29
2022-12-26T09:13:44.191Z,91.07
2022-12-26T09:16:15.548Z,89.54
2022-12-26T09:18:43.039Z,89.64
2022-12-26T09:21:12.613Z,91.73
2022-12-26T09:23:41.036Z,91.02
2022-12-26T09:26:12.760Z,91.07
2022-12-26T09:28:40.823Z,94.54
2022-12-26T09:31:11.628Z,93.12
2022-12-26T09:33:39.872Z,91.49
2022-12-26T09:36:14.291Z,94.41
2022-12-26T09:38:42.601Z,91.83
2022-12-26T09:41:26.008Z,91.83
2022-12-26T09:44:04.567Z,90.60
2022-12-26T09:46:35.835Z,89.35
2022-12-26T09:49:11.308Z,90.77
2022-12-26T09:51:41.061Z,89.87
2022-12-26T09:54:16.265Z,90.16
2022-12-26T09:57:03.507Z,90.77
2022-12-26T09:59:35.395Z,89.36
2022-12-26T10:02:02.981Z,89.27
2022-12-26T10:04:30.882Z,89.45
2022-12-26T10:07:08.207Z,91.70
2022-12-26T10:10:01.039Z,89.96
2022-12-26T10:12:43.584Z,89.22
2022-12-26T10:15:32.092Z,88.52
2022-12-26T10:18:12.363Z,93.57
2022-12-26T10:20:52.974Z,90.93
2022-12-26T10:23:33.093Z,87.75
2022-12-26T10:26:07.093Z,87.10
2022-12-26T10:28:40.232Z,90.21
2022-12-26T10:31:14.482Z,90.50
2022-12-26T10:33:47.145Z,87.98
2022-12-26T10:36:22.183Z,90.62
2022-12-26T10:38:51.905Z,87.59
2022-12-26T10:41:25.214Z,88.20
2022-12-26T10:43:54.268Z,90.01
2022-12-26T10:46:48.131Z,92.67
2022-12-26T10:49:19.413Z,90.58
2022-12-26T10:51:46.894Z,89.97
2022-12-26T10:54:18.040Z,88.79
2022-12-26T10:56:48.336Z,88.18
2022-12-26T10:59:19.960Z,87.54
2022-12-26T11:01:50.903Z,91.66
2022-12-26T11:04:44.563Z,88.28
2022-12-26T11:07:12.314Z,87.02
2022-12-26T11:09:42.657Z,87.74
2022-12-26T11:12:21.560Z,86.75
2022-12-26T11:14:51.408Z,86.61
2022-12-26T11:17:27.950Z,86.72
2022-12-26T11:20:22.387Z,89.63
2022-12-26T11:22:49.913Z,86.52
2022-12-26T11:25:20.934Z,87.26
2022-12-26T11:27:50.083Z,86.80
2022-12-26T11:30:25.315Z,85.13
2022-12-26T11:33:13.511Z,87.67
2022-12-26T11:35:49.599Z,89.08
2022-12-26T11:38:37.328Z,88.18
2022-12-26T11:41:30.163Z,88.26
2022-12-26T11:43:59.800Z,86.57
2022-12-26T11:46:36.520Z,86.11
2022-12-26T11:49:05.369Z,88.21
2022-12-26T11:51:35.600Z,87.03
2022-12-26T11:54:24.345Z,84.08
2022-12-26T11:57:02.878Z,84.74
2022-12-26T11:59:30.675Z,84.51
2022-12-26T12:02:22.196Z,84.98
2022-12-26T12:04:51.674Z,86.41
2022-12-26T12:07:32.991Z,87.81
2022-12-26T12:10:04.320Z,87.15
2022-12-26T12:12:42.237Z,88.14
2022-12-26T12:15:17.321Z,88.71
2022-12-26T12:18:03.568Z,87.34
2022-12-26T12:20:38.734Z,89.78
2022-12-26T12:23:20.760Z,87.86
2022-12-26T12:26:03.141Z,92.61
2022-12-26T12:28:59.202Z,90.43
2022-12-26T12:31:39.576Z,89.76
2022-12-26T12:34:20.727Z,87.51
2022-12-26T12:37:02.400Z,87.89
2022-12-26T12:39:45.612Z,89.66
2022-12-26T12:42:29.615Z,90.45
2022-12-26T12:45:18.047Z,87.89
2022-12-26T12:47:54.507Z,89.83
2022-12-26T12:50:29.578Z,87.13
2022-12-26T12:53:06.476Z,87.03
2022-12-26T12:55:44.571Z,89.39
2022-12-26T12:58:23.641Z,91.26
2022-12-26T13:00:56.087Z,88.30
2022-12-26T13:03:29.242Z,88.30
2022-12-26T13:06:07.473Z,87.52
2022-12-26T13:08:41.385Z,88.34
2022-12-26T13:11:14.639Z,86.40
2022-12-26T13:13:53.228Z,86.33
2022-12-26T13:16:28.218Z,87.52
2022-12-26T13:18:59.776Z,85.21
2022-12-26T13:21:32.093Z,85.43
2022-12-26T13:24:22.657Z,86.18
2022-12-26T13:26:55.542Z,88.16
2022-12-26T13:29:34.634Z,85.79
2022-12-26T13:32:04.468Z,87.63
2022-12-26T13:34:32.736Z,87.98
2022-12-26T13:37:01.915Z,87.89
2022-12-26T13:39:41.302Z,87.22
2022-12-26T13:42:51.138Z,87.53
2022-12-26T13:45:50.398Z,87.67
2022-12-26T13:48:56.990Z,89.18
2022-12-26T13:51:53.415Z,89.91
2022-12-26T13:54:24.388Z,87.73
2022-12-26T13:57:07.582Z,89.75
2022-12-26T13:59:40.981Z,87.05
2022-12-26T14:03:16.114Z,88.83
2022-12-26T14:05:37.124Z,88.85
2022-12-26T14:08:11.876Z,89.83
2022-12-26T14:10:54.387Z,89.03
2022-12-26T14:13:38.105Z,87.02
2022-12-26T14:16:15.284Z,90.34
2022-12-26T14:18:50.951Z,88.22
2022-12-26T14:21:34.281Z,87.44
2022-12-26T14:24:18.055Z,87.28
2022-12-26T14:26:52.838Z,88.96
2022-12-26T14:29:29.175Z,90.97
2022-12-26T14:32:11.707Z,91.77
2022-12-26T14:35:02.660Z,92.02
2022-12-26T14:37:42.412Z,89.19
2022-12-26T14:40:25.837Z,89.63
2022-12-26T14:43:11.314Z,91.16
2022-12-26T14:45:42.819Z,91.93
2022-12-26T14:48:43.700Z,90.17
2022-12-26T14:51:40.188Z,89.86
2022-12-26T14:54:26.106Z,89.05
2022-12-26T14:56:54.116Z,86.29
2022-12-26T14:59:29.926Z,87.06
2022-12-26T15:02:31.196Z,86.80
2022-12-26T15:05:11.576Z,85.81
2022-12-26T15:08:10.838Z,86.55
2022-12-26T15:11:19.529Z,85.44
2022-12-26T15:14:13.097Z,85.89
2022-12-26T15:16:57.969Z,85.38
2022-12-26T15:19:46.699Z,86.12
2022-12-26T15:22:55.410Z,84.10
2022-12-26T15:25:55.654Z,84.77
2022-12-26T15:28:41.476Z,84.64
2022-12-26T15:31:25.954Z,83.83
2022-12-26T15:34:03.518Z,84.82
2022-12-26T15:36:43.179Z,86.95
2022-12-26T15:39:22.588Z,88.36
2022-12-26T15:41:58.442Z,88.06
2022-12-26T15:44:31.571Z,87.81
2022-12-26T15:47:15.056Z,85.55
2022-12-26T15:49:57.395Z,88.38
2022-12-26T15:52:37.909Z,87.43
2022-12-26T15:55:21.844Z,86.28
2022-12-26T15:57:56.610Z,87.00
2022-12-26T16:00:25.542Z,85.13
2022-12-26T16:03:11.538Z,86.20
2022-12-26T16:05:53.703Z,87.30
2022-12-26T16:08:51.633Z,87.60
2022-12-26T16:11:21.734Z,88.08
2022-12-26T16:14:01.053Z,89.77
2022-12-26T16:16:34.662Z,87.42
2022-12-26T16:19:19.313Z,90.44
2022-12-26T16:22:09.658Z,87.42
2022-12-26T16:24:39.529Z,88.21
2022-12-26T16:27:09.702Z,89.58
2022-12-26T16:29:45.787Z,88.44
2022-12-26T16:32:18.977Z,87.42
2022-12-26T16:34:47.630Z,88.82
2022-12-26T16:37:20.646Z,87.94
2022-12-26T16:40:07.396Z,90.92
2022-12-26T16:42:35.371Z,87.96
2022-12-26T16:45:03.569Z,87.58
2022-12-26T16:47:33.603Z,88.22
2022-12-26T16:50:01.371Z,91.55
2022-12-26T16:52:34.461Z,90.23
2022-12-26T16:55:25.971Z,90.12
2022-12-26T16:57:56.480Z,90.33
2022-12-26T17:00:25.139Z,93.14
2022-12-26T17:02:55.861Z,89.43
2022-12-26T17:05:27.943Z,89.45
2022-12-26T17:07:59.347Z,90.09
2022-12-26T17:10:29.660Z,89.78
2022-12-26T17:13:00.577Z,88.43
2022-12-26T17:15:30.756Z,88.25
2022-12-26T17:17:59.790Z,87.45
2022-12-26T17:20:38.955Z,86.26
2022-12-26T17:23:37.097Z,86.98
2022-12-26T17:26:23.676Z,88.11
2022-12-26T17:28:51.666Z,85.42
2022-12-26T17:31:24.775Z,86.41
2022-12-26T17:33:56.078Z,87.65
2022-12-26T17:39:22.181Z,88.06
2022-12-26T17:41:55.630Z,87.96
2022-12-26T17:44:40.985Z,88.59
2022-12-26T17:47:17.840Z,85.88
2022-12-26T17:49:45.362Z,86.64
2022-12-26T17:52:14.841Z,86.84
2022-12-26T17:54:43.643Z,88.04
2022-12-26T17:57:18.709Z,86.51
2022-12-26T17:59:46.328Z,85.25
2022-12-26T18:02:13.976Z,85.29
2022-12-26T18:04:41.734Z,85.47
2022-12-26T18:07:13.198Z,86.14
2022-12-26T18:09:40.778Z,88.45
2022-12-26T18:12:11.503Z,87.63
2022-12-26T18:14:38.984Z,86.45
2022-12-26T18:17:06.741Z,85.46
2022-12-26T18:19:34.914Z,86.94
2022-12-26T18:22:02.912Z,86.32
2022-12-26T18:24:31.058Z,85.88
2022-12-26T18:26:58.819Z,85.07
2022-12-26T18:29:27.589Z,87.14
2022-12-26T18:31:55.112Z,87.82
2022-12-26T18:34:22.533Z,87.17
2022-12-26T18:36:50.289Z,87.65
2022-12-26T18:39:18.296Z,88.49
2022-12-26T18:41:45.935Z,88.89
2022-12-26T18:44:15.645Z,87.75
2022-12-26T18:46:44.503Z,86.81
2022-12-26T18:49:12.013Z,86.03
2022-12-26T18:51:39.449Z,84.73
2022-12-26T18:54:07.027Z,84.72
2022-12-26T18:56:34.422Z,84.08
2022-12-26T18:59:01.888Z,83.80
2022-12-26T19:01:29.414Z,84.29
2022-12-26T19:03:58.401Z,82.38
2022-12-26T19:06:27.770Z,82.22
2022-12-26T19:08:55.982Z,81.64
2022-12-26T19:11:24.229Z,82.00
2022-12-26T19:13:52.718Z,81.02
2022-12-26T19:16:22.915Z,81.35
2022-12-26T19:18:50.763Z,80.93
2022-12-26T19:21:19.553Z,81.97
2022-12-26T19:23:48.342Z,81.89
2022-12-26T19:26:18.532Z,81.65
2022-12-26T19:28:50.908Z,82.31
2022-12-26T19:31:18.420Z,82.42
2022-12-26T19:33:45.934Z,83.19
2022-12-26T19:36:13.934Z,82.83
2022-12-26T19:38:42.969Z,83.07
2022-12-26T19:41:12.338Z,83.20
2022-12-26T19:43:39.950Z,83.71
2022-12-26T19:46:09.616Z,84.85
2022-12-26T19:48:38.735Z,84.80
2022-12-26T19:51:09.090Z,85.49
2022-12-26T19:53:37.983Z,84.99
2022-12-26T19:56:09.407Z,83.27
2022-12-26T19:58:37.067Z,83.87
2022-12-26T20:01:08.741Z,85.61
2022-12-26T20:03:36.945Z,86.45
2022-12-26T20:06:09.951Z,86.55
2022-12-26T20:11:22.890Z,84.78
2022-12-26T20:13:50.987Z,82.80
2022-12-26T20:17:04.304Z,76.71
2022-12-26T20:19:19.995Z,76.05
2022-12-26T20:21:48.086Z,73.78
2022-12-26T20:24:16.352Z,72.07
2022-12-26T20:26:45.538Z,72.75
2022-12-26T20:29:13.231Z,69.90
2022-12-26T20:31:42.563Z,72.48
2022-12-26T20:34:11.248Z,74.61
2022-12-26T20:36:40.086Z,75.04
2022-12-26T20:39:11.199Z,75.73
2022-12-26T20:41:39.158Z,77.17
2022-12-26T20:44:08.083Z,77.40
2022-12-26T20:46:36.212Z,78.63
2022-12-26T20:49:05.396Z,78.88
2022-12-26T20:51:37.971Z,78.52
2022-12-26T20:54:06.170Z,78.03
2022-12-26T20:56:37.598Z,77.12
2022-12-26T20:59:05.484Z,78.19
2022-12-26T21:01:35.218Z,76.65
2022-12-26T21:04:02.890Z,77.37
2022-12-26T21:06:32.344Z,79.09
2022-12-26T21:09:00.139Z,80.31
2022-12-26T21:11:29.460Z,81.55
2022-12-26T21:13:58.400Z,82.40
2022-12-26T21:16:29.993Z,81.18
2022-12-26T21:18:59.486Z,82.81
2022-12-26T21:21:28.884Z,81.67
2022-12-26T21:23:59.892Z,80.58
2022-12-26T21:26:28.213Z,80.37
2022-12-26T21:28:57.463Z,81.52
2022-12-26T21:31:25.277Z,80.20
2022-12-26T21:33:55.348Z,79.70
2022-12-26T21:36:24.324Z,78.44
2022-12-26T21:38:54.677Z,77.54
2022-12-26T21:41:22.995Z,76.42
2022-12-26T21:43:50.887Z,77.87
2022-12-26T21:46:20.769Z,76.81
2022-12-26T21:48:52.323Z,76.69
2022-12-26T21:51:21.721Z,75.66
2022-12-26T21:53:50.515Z,72.64
2022-12-26T21:56:17.897Z,76.14
2022-12-26T21:59:03.653Z,75.68
2022-12-26T22:01:31.841Z,74.33
2022-12-26T22:04:16.878Z,73.13
2022-12-26T22:06:44.366Z,73.72
2022-12-26T22:09:15.649Z,74.07
2022-12-26T22:12:03.997Z,74.37
2022-12-26T22:14:34.198Z,74.07
2022-12-26T22:17:01.605Z,75.25
2022-12-26T22:19:29.265Z,72.77
2022-12-26T22:21:56.784Z,73.90
2022-12-26T22:24:25.570Z,71.09
2022-12-26T22:26:53.535Z,69.79
2022-12-26T22:29:20.977Z,70.50
2022-12-26T22:31:48.421Z,70.63
2022-12-26T22:34:17.096Z,70.33
2022-12-26T22:36:44.700Z,70.55
2022-12-26T22:39:17.457Z,69.64
2022-12-26T22:41:47.557Z,69.04
2022-12-26T22:44:15.598Z,68.36
2022-12-26T22:46:43.790Z,68.47
2022-12-26T22:49:11.590Z,67.97
2022-12-26T22:51:39.350Z,68.27
2022-12-26T22:54:06.879Z,68.69
2022-12-26T22:56:34.838Z,67.88
2022-12-26T22:59:03.825Z,66.86
2022-12-26T23:01:31.635Z,67.79
2022-12-26T23:04:03.942Z,68.85
2022-12-26T23:06:33.818Z,66.86
2022-12-26T23:09:03.952Z,67.00
2022-12-26T23:11:35.302Z,67.59
2022-12-26T23:14:06.243Z,67.69
2022-12-26T23:16:39.424Z,66.83
2022-12-26T23:19:32.772Z,66.64
2022-12-26T23:22:02.358Z,67.16
2022-12-26T23:24:32.154Z,66.97
2022-12-26T23:27:17.417Z,66.20
2022-12-26T23:30:04.501Z,67.67
2022-12-26T23:32:32.084Z,66.96
2022-12-26T23:34:59.503Z,67.78
2022-12-26T23:37:27.052Z,67.02
2022-12-26T23:39:54.541Z,66.63
2022-12-26T23:42:21.985Z,67.46
2022-12-26T23:44:50.731Z,67.71
2022-12-26T23:47:18.168Z,67.92
2022-12-26T23:49:45.621Z,68.89
2022-12-26T23:52:13.053Z,67.31
2022-12-26T23:54:40.492Z,69.28
2022-12-26T23:57:07.947Z,69.85
2022-12-26T23:59:35.399Z,68.25
